createdAt,value
2022-12-23T04:42:36.026Z,100098.00
2022-12-23T04:45:39.273Z,100096.38
2022-12-23T04:48:42.526Z,100102.41
2022-12-23T04:51:45.627Z,100108.34
2022-12-23T04:54:48.215Z,100106.59
2022-12-23T04:57:51.083Z,100106.66
2022-12-23T05:01:09.484Z,100107.44
2022-12-23T05:04:13.051Z,100101.28
2022-12-23T05:07:15.623Z,100094.97
2022-12-23T05:10:18.660Z,100092.69
2022-12-23T05:13:21.778Z,100102.91
2022-12-23T05:16:25.175Z,100097.87
2022-12-23T05:19:27.811Z,100117.00
2022-12-23T05:22:30.725Z,100117.00
2022-12-23T05:25:37.483Z,100112.78
2022-12-23T05:28:40.723Z,100108.69
2022-12-23T05:31:45.544Z,100103.44
2022-12-23T05:34:48.503Z,100098.37
2022-12-23T05:37:51.857Z,100099.06
2022-12-23T05:40:54.808Z,100097.31
2022-12-23T05:43:57.375Z,100097.31
2022-12-23T05:47:00.549Z,100110.44
2022-12-23T05:50:04.898Z,100101.78
2022-12-23T05:53:08.135Z,100104.44
2022-12-23T05:56:10.797Z,100117.28
2022-12-23T05:59:13.909Z,100120.06
2022-12-23T06:02:16.742Z,100131.38
2022-12-23T06:05:19.676Z,100131.25
2022-12-23T06:08:22.517Z,100130.47
2022-12-23T06:11:26.256Z,100128.72
2022-12-23T06:14:29.626Z,100121.87
2022-12-23T06:17:32.797Z,100125.37
2022-12-23T06:20:36.502Z,100128.87
2022-12-23T06:23:39.443Z,100123.66
2022-12-23T06:26:42.641Z,100128.81
2022-12-23T06:29:48.256Z,100128.75
2022-12-23T06:32:51.048Z,100123.66
2022-12-23T06:35:54.179Z,100121.28
2022-12-23T06:38:56.891Z,100119.50
2022-12-23T06:41:59.933Z,100108.22
2022-12-23T06:45:03.028Z,100123.06
2022-12-23T06:48:06.877Z,100124.78
2022-12-23T06:51:13.662Z,100130.97
2022-12-23T06:54:16.607Z,100130.84
2022-12-23T06:57:19.260Z,100137.84
2022-12-23T07:00:22.364Z,100135.34
2022-12-23T07:03:25.053Z,100137.25
2022-12-23T07:06:28.244Z,100142.50
2022-12-23T07:09:31.300Z,100149.34
2022-12-23T07:12:34.273Z,100157.16
2022-12-23T07:15:38.243Z,100175.31
2022-12-23T07:18:41.230Z,100170.13
2022-12-23T07:21:43.939Z,100171.88
2022-12-23T07:24:46.908Z,100170.13
2022-12-23T07:27:56.159Z,100179.47
2022-12-23T07:30:59.288Z,100176.59
2022-12-23T07:34:02.216Z,100168.16
2022-12-23T07:37:05.041Z,100154.22
2022-12-23T07:40:09.074Z,100140.50
2022-12-23T07:43:12.294Z,100143.09
2022-12-23T07:46:15.033Z,100148.25
2022-12-23T07:49:18.124Z,100155.22
2022-12-23T07:52:20.790Z,100159.47
2022-12-23T07:55:23.979Z,100150.84
2022-12-23T07:58:26.612Z,100151.81
2022-12-23T08:01:29.708Z,100144.94
2022-12-23T08:04:32.659Z,100146.44
2022-12-23T08:07:35.874Z,100144.91
2022-12-23T08:10:47.658Z,100147.44
2022-12-23T08:13:52.835Z,100147.25
2022-12-23T08:16:55.847Z,100132.97
2022-12-23T08:19:58.584Z,100136.19
2022-12-23T08:23:02.362Z,100125.34
2022-12-23T08:26:11.549Z,100120.69
2022-12-23T08:29:14.745Z,100144.25
2022-12-23T08:32:17.514Z,100124.16
2022-12-23T08:35:20.430Z,100137.97
2022-12-23T08:38:25.142Z,100130.25
2022-12-23T08:41:31.368Z,100120.69
2022-12-23T08:44:33.996Z,100123.53
2022-12-23T08:47:36.872Z,100128.75
2022-12-23T08:50:41.888Z,100125.34
2022-12-23T08:53:45.123Z,100110.75
2022-12-23T08:56:47.949Z,100101.09
2022-12-23T08:59:51.837Z,100090.06
2022-12-23T09:02:54.523Z,100079.47
2022-12-23T09:05:57.574Z,100079.84
2022-12-23T09:09:00.245Z,100089.16
2022-12-23T09:12:03.513Z,100093.69
2022-12-23T09:15:06.840Z,100099.00
2022-12-23T09:18:11.214Z,100107.44
2022-12-23T09:21:16.721Z,100115.94
2022-12-23T09:24:19.664Z,100117.81
2022-12-23T09:27:22.264Z,100114.22
2022-12-23T09:30:25.402Z,100111.72
2022-12-23T09:33:27.930Z,100110.72
2022-12-23T09:36:30.945Z,100106.28
2022-12-23T09:39:33.622Z,100100.94
2022-12-23T09:42:54.786Z,100092.88
2022-12-23T09:45:57.415Z,100090.22
2022-12-23T09:49:05.307Z,100080.13
2022-12-23T09:52:13.676Z,100074.72
2022-12-23T09:55:18.389Z,100087.03
2022-12-23T09:58:37.575Z,100087.87
2022-12-23T10:01:54.813Z,100093.03
2022-12-23T10:05:11.469Z,100088.16
2022-12-23T10:08:33.432Z,100075.88
2022-12-23T10:11:41.398Z,100055.81
2022-12-23T10:14:45.535Z,100054.78
2022-12-23T10:17:52.602Z,100044.59
2022-12-23T10:21:06.068Z,100037.25
2022-12-23T10:24:28.560Z,100040.91
2022-12-23T10:27:40.067Z,100041.03
2022-12-23T10:35:51.277Z,100034.81
2022-12-23T10:38:19.795Z,100025.94
2022-12-23T10:41:38.167Z,100011.16
2022-12-23T10:44:58.920Z,100018.41
2022-12-23T10:48:19.935Z,100018.97
2022-12-23T10:51:29.157Z,100022.06
2022-12-23T10:54:34.869Z,100010.06
2022-12-23T10:57:38.046Z,100013.53
2022-12-23T11:00:46.784Z,100015.19
2022-12-23T11:03:58.672Z,100013.34
2022-12-23T11:07:34.428Z,100019.53
2022-12-23T11:10:33.070Z,100020.75
2022-12-23T11:13:39.528Z,100020.53
2022-12-23T11:16:45.751Z,100011.47
2022-12-23T11:20:06.047Z,100016.47
2022-12-23T11:23:30.825Z,100015.12
2022-12-23T11:26:33.807Z,100009.50
2022-12-23T11:29:40.595Z,99994.75
2022-12-23T11:32:44.636Z,99993.63
2022-12-23T11:35:59.399Z,99990.50
2022-12-23T11:39:24.422Z,99993.66
2022-12-23T11:42:30.199Z,100012.41
2022-12-23T11:45:38.176Z,100008.22
2022-12-23T11:48:41.197Z,100013.09
2022-12-23T11:52:12.369Z,100009.28
2022-12-23T11:55:26.984Z,100013.78
2022-12-23T11:58:34.728Z,100018.22
2022-12-23T12:01:39.456Z,100024.34
2022-12-23T12:04:42.969Z,100017.22
2022-12-23T12:07:45.563Z,100019.81
2022-12-23T12:10:52.942Z,100017.84
2022-12-23T12:14:07.460Z,100023.13
2022-12-23T12:17:23.424Z,100015.75
2022-12-23T12:20:39.074Z,100023.00
2022-12-23T12:23:47.773Z,100010.72
2022-12-23T12:26:54.417Z,100021.34
2022-12-23T12:30:07.994Z,100012.12
2022-12-23T12:33:11.841Z,100022.59
2022-12-23T12:36:41.196Z,100025.97
2022-12-23T12:39:53.883Z,100016.56
2022-12-23T12:43:04.353Z,100018.78
2022-12-23T12:46:34.321Z,100017.50
2022-12-23T12:49:49.913Z,100016.72
2022-12-23T12:52:56.676Z,100017.91
2022-12-23T12:56:13.080Z,100012.50
2022-12-23T12:59:22.468Z,100020.53
2022-12-23T13:03:27.369Z,100011.81
2022-12-23T13:07:01.959Z,100013.66
2022-12-23T13:10:14.043Z,100018.06
2022-12-23T13:13:46.110Z,100022.09
2022-12-23T13:17:07.371Z,100028.94
2022-12-23T13:20:32.707Z,100028.66
2022-12-23T13:23:46.130Z,100034.50
2022-12-23T13:27:07.689Z,100036.41
2022-12-23T13:30:21.601Z,100032.84
2022-12-23T13:33:32.706Z,100024.03
2022-12-23T13:36:44.630Z,100017.97
2022-12-23T13:39:52.971Z,100017.34
2022-12-23T13:43:21.800Z,100020.34
2022-12-23T13:46:47.542Z,100017.97
2022-12-23T13:50:02.581Z,100027.47
2022-12-23T13:53:30.625Z,100022.47
2022-12-23T13:56:42.434Z,100034.53
2022-12-23T14:00:04.892Z,100032.53
2022-12-23T14:03:23.795Z,100028.94
2022-12-23T14:06:32.585Z,100015.91
2022-12-23T14:09:38.722Z,100022.09
2022-12-23T14:12:42.883Z,100026.44
2022-12-23T14:17:00.268Z,100027.53
2022-12-23T14:20:19.212Z,100027.56
2022-12-23T14:24:04.595Z,100034.56
2022-12-23T14:27:45.457Z,100036.31
2022-12-23T14:30:50.309Z,100042.78
2022-12-23T14:33:53.419Z,100040.25
2022-12-23T14:37:20.565Z,100032.53
2022-12-23T14:40:39.070Z,100044.66
2022-12-23T14:43:44.521Z,100046.34
2022-12-23T14:46:54.340Z,100041.81
2022-12-23T14:50:17.048Z,100045.28
2022-12-23T14:53:28.089Z,100049.03
2022-12-23T14:56:39.766Z,100051.84
2022-12-23T14:59:52.393Z,100041.28
2022-12-23T15:02:59.092Z,100045.62
2022-12-23T15:06:07.295Z,100046.41
2022-12-23T15:09:28.175Z,100056.56
2022-12-23T15:12:38.247Z,100056.56
2022-12-23T15:15:56.070Z,100054.94
2022-12-23T15:19:29.898Z,100069.75
2022-12-23T15:22:32.885Z,100078.50
2022-12-23T15:25:40.752Z,100084.00
